Time;durP1;ratioP1;P1;durP2;ratioP2;P2;SDS_P1;SDS_P2;PMS_P1;PMS_P2;Temp;Humidity;BMP_temperature;BMP_pressure;BME280_temperature;BME280_humidity;BME280_pressure;Samples;Min_cycle;Max_cycle;Signal;HPM_P1;HPM_P2
2023/05/24 00:01:28;;;;;;;14.37;4.47;;;;;;;7.59;87.92;102292.22;5242260;28;20388;-66
2023/05/24 00:03:59;;;;;;;11.47;3.67;;;;;;;7.56;87.99;102292.16;5242333;28;20064;-66
2023/05/24 00:06:33;;;;;;;10.03;3.33;;;;;;;7.50;87.83;102286.81;5241818;28;20036;-66
2023/05/24 00:09:05;;;;;;;13.38;3.80;;;;;;;7.47;88.27;102298.03;5242273;28;20057;-66
2023/05/24 00:11:36;;;;;;;9.97;3.40;;;;;;;7.39;88.58;102286.59;5242008;28;20041;-66
2023/05/24 00:14:07;;;;;;;15.27;3.80;;;;;;;7.44;88.59;102287.56;5241818;28;20039;-66
2023/05/24 00:16:39;;;;;;;11.73;4.37;;;;;;;7.41;88.98;102278.84;5241896;28;20412;-66
2023/05/24 00:19:10;;;;;;;11.00;3.43;;;;;;;7.47;88.88;102274.66;5242127;28;20499;-67
2023/05/24 00:21:41;;;;;;;12.50;4.27;;;;;;;7.35;88.55;102266.56;5241757;28;20072;-66
2023/05/24 00:24:13;;;;;;;16.13;3.63;;;;;;;7.36;88.85;102273.53;5242198;28;20053;-66
2023/05/24 00:26:44;;;;;;;14.63;4.03;;;;;;;7.27;89.35;102266.38;5241670;28;20026;-67
2023/05/24 00:29:16;;;;;;;12.03;4.13;;;;;;;7.25;89.60;102269.81;5242039;28;20037;-66
2023/05/24 00:31:47;;;;;;;12.17;5.10;;;;;;;7.20;90.16;102266.22;5241872;28;20033;-67
2023/05/24 00:34:19;;;;;;;17.33;4.33;;;;;;;7.14;89.96;102269.53;5241549;28;20535;-66
2023/05/24 00:36:50;;;;;;;13.70;4.53;;;;;;;7.06;90.69;102266.72;5242136;28;20043;-66
2023/05/24 00:39:22;;;;;;;10.03;3.70;;;;;;;7.01;90.81;102257.97;5241793;28;20491;-66
2023/05/24 00:41:54;;;;;;;13.80;3.60;;;;;;;6.99;91.08;102258.75;5241801;28;20045;-66
2023/05/24 00:44:25;;;;;;;13.63;3.53;;;;;;;6.94;91.41;102264.72;5241726;28;20037;-65
2023/05/24 00:46:56;;;;;;;14.77;4.77;;;;;;;6.96;91.52;102261.28;5241487;28;20049;-66
2023/05/24 00:49:28;;;;;;;14.07;4.77;;;;;;;6.94;91.74;102256.06;5241700;28;20059;-67
2023/05/24 00:52:00;;;;;;;17.07;4.50;;;;;;;6.88;92.29;102261.94;5241915;28;20025;-66
2023/05/24 00:54:32;;;;;;;14.43;4.15;;;;;;;6.86;92.87;102258.44;5241642;28;20037;-66
2023/05/24 00:57:03;;;;;;;14.53;3.90;;;;;;;6.71;92.87;102261.53;5240681;28;20037;-65
2023/05/24 00:59:35;;;;;;;15.97;4.50;;;;;;;6.69;93.26;102264.91;5241497;28;20361;-65
2023/05/24 01:02:06;;;;;;;16.07;3.93;;;;;;;6.65;93.47;102255.25;5240568;28;20132;-67
2023/05/24 01:04:38;;;;;;;14.13;4.67;;;;;;;6.61;93.56;102256.91;5241792;28;20033;-66
2023/05/24 01:07:12;;;;;;;14.23;4.60;;;;;;;6.58;94.08;102259.41;5241355;28;20113;-66
2023/05/24 01:10:13;;;;;;;11.68;4.25;;;;;;;6.53;95.01;102251.50;5241474;28;20458;-66
2023/05/24 01:13:17;;;;;;;12.95;4.57;;;;;;;6.48;94.71;102250.50;5233412;28;20053;-66
2023/05/24 01:15:51;;;;;;;11.05;4.28;;;;;;;6.47;94.43;102245.28;5239815;28;20053;-66
2023/05/24 01:18:29;;;;;;;10.68;3.90;;;;;;;6.35;95.06;102243.25;5244515;28;20025;-67
2023/05/24 01:21:37;;;;;;;15.20;4.43;;;;;;;6.42;95.58;102247.75;5245146;28;20117;-66
2023/05/24 01:24:28;;;;;;;13.15;5.68;;;;;;;6.43;95.37;102244.31;5237320;28;20121;-65
2023/05/24 01:27:06;;;;;;;15.57;4.80;;;;;;;6.42;95.71;102247.75;5245601;28;20039;-65
2023/05/24 01:29:38;;;;;;;14.15;4.70;;;;;;;6.34;95.67;102237.19;5245724;28;20029;-66
2023/05/24 01:32:09;;;;;;;14.17;4.30;;;;;;;6.37;95.82;102238.97;5245613;28;20034;-66
2023/05/24 01:34:41;;;;;;;15.10;5.67;;;;;;;6.35;96.34;102241.53;5245202;28;20036;-67
2023/05/24 01:37:12;;;;;;;14.50;5.00;;;;;;;6.35;96.39;102243.25;5245821;28;20451;-66
2023/05/24 01:39:44;;;;;;;18.90;4.77;;;;;;;6.26;96.06;102243.84;5245868;28;20060;-66
2023/05/24 01:42:26;;;;;;;13.77;5.78;;;;;;;6.29;96.49;102246.53;5245470;28;20036;-67
2023/05/24 01:45:13;;;;;;;17.33;5.13;;;;;;;6.18;96.46;102241.06;5244372;28;20458;-66
2023/05/24 01:48:05;;;;;;;14.95;5.13;;;;;;;6.14;97.24;102236.63;5244667;28;20124;-67
2023/05/24 01:50:45;;;;;;;11.93;4.00;;;;;;;6.07;97.06;102236.38;5246172;28;20075;-68
2023/05/24 01:53:18;;;;;;;17.48;5.30;;;;;;;6.12;97.58;102232.25;5245416;28;20465;-66
2023/05/24 01:55:55;;;;;;;13.48;4.25;;;;;;;6.07;97.99;102226.94;5245029;28;20122;-66
2023/05/24 01:58:28;;;;;;;15.13;5.03;;;;;;;6.04;98.18;102226.84;5245394;28;20073;-66
2023/05/24 02:01:01;;;;;;;19.05;6.05;;;;;;;5.96;98.59;102236.06;5244294;28;20036;-67
2023/05/24 02:03:32;;;;;;;14.63;5.68;;;;;;;5.89;98.72;102232.38;5243799;28;20037;-66
2023/05/24 02:06:05;;;;;;;15.73;6.57;;;;;;;5.99;99.09;102236.19;5244918;28;20373;-65
2023/05/24 02:08:36;;;;;;;12.32;5.00;;;;;;;5.97;99.32;102240.41;5244506;28;20041;-66
2023/05/24 02:11:08;;;;;;;12.77;4.67;;;;;;;5.95;99.38;102244.66;5245486;28;20030;-66
2023/05/24 02:13:39;;;;;;;13.57;5.03;;;;;;;5.97;99.30;102243.91;5244973;28;20037;-67
2023/05/24 02:16:11;;;;;;;16.80;6.27;;;;;;;5.90;99.43;102243.63;5245199;28;20108;-67
2023/05/24 02:18:43;;;;;;;15.20;5.10;;;;;;;5.88;99.83;102248.75;5244914;28;20042;-67
2023/05/24 02:21:14;;;;;;;13.73;5.30;;;;;;;5.86;100.00;102250.44;5244831;28;20053;-66
2023/05/24 02:23:46;;;;;;;14.27;5.53;;;;;;;5.84;100.00;102250.38;5243599;28;20515;-65
2023/05/24 02:26:17;;;;;;;20.13;6.07;;;;;;;5.80;100.00;102251.13;5245109;28;20029;-66
2023/05/24 02:28:48;;;;;;;15.73;6.10;;;;;;;5.85;100.00;102248.66;5244751;28;20037;-66
2023/05/24 02:31:20;;;;;;;17.13;5.67;;;;;;;5.88;100.00;102248.75;5260575;28;20108;-66
2023/05/24 02:33:51;;;;;;;20.77;6.03;;;;;;;5.80;100.00;102245.94;5244557;28;20029;-65
2023/05/24 02:36:23;;;;;;;15.70;5.67;;;;;;;5.76;100.00;102248.38;5244502;28;20041;-66
2023/05/24 02:38:55;;;;;;;11.77;5.10;;;;;;;5.74;100.00;102240.56;5243285;28;20042;-67
2023/05/24 02:41:26;;;;;;;18.30;6.05;;;;;;;5.67;100.00;102246.41;5244439;28;20412;-66
2023/05/24 02:43:58;;;;;;;9.27;4.90;;;;;;;5.62;100.00;102240.22;5242940;28;20029;-66
2023/05/24 02:46:29;;;;;;;14.33;5.70;;;;;;;5.58;100.00;102238.34;5243834;28;20103;-65
2023/05/24 02:49:01;;;;;;;16.60;5.90;;;;;;;5.59;100.00;102245.28;5244512;28;20041;-66
2023/05/24 02:51:32;;;;;;;14.13;5.00;;;;;;;5.48;100.00;102244.94;5244093;28;20056;-66
2023/05/24 02:54:03;;;;;;;15.13;5.13;;;;;;;5.45;100.00;102253.47;5243073;28;20083;-66
2023/05/24 02:56:36;;;;;;;16.00;5.83;;;;;;;5.34;100.00;102247.06;5243650;28;20144;-67
2023/05/24 02:59:07;;;;;;;17.02;5.43;;;;;;;5.31;100.00;102252.16;5243883;28;20084;-66
2023/05/24 03:01:39;;;;;;;13.60;5.17;;;;;;;5.27;100.00;102251.19;5244062;28;20037;-66
2023/05/24 03:04:10;;;;;;;15.40;5.77;;;;;;;5.26;100.00;102254.63;5243782;28;20029;-67
2023/05/24 03:06:41;;;;;;;12.73;5.50;;;;;;;5.22;100.00;102249.28;5243691;28;20038;-66
2023/05/24 03:09:15;;;;;;;16.87;6.70;;;;;;;5.27;100.00;102247.72;5244276;28;20033;-66
2023/05/24 03:11:46;;;;;;;14.85;5.70;;;;;;;5.24;100.00;102250.22;5242408;28;20389;-66
2023/05/24 03:14:19;;;;;;;20.90;7.27;;;;;;;5.24;100.00;102250.22;5243390;28;20034;-66
2023/05/24 03:16:50;;;;;;;;;;;;;;;5.18;100.00;102250.00;5243272;28;20425;-66
2023/05/24 03:19:21;;;;;;;14.10;6.18;;;;;;;5.18;100.00;102247.41;5243594;28;19920;-67
2023/05/24 03:21:53;;;;;;;22.10;6.67;;;;;;;5.17;100.00;102249.13;5244309;28;20044;-66
2023/05/24 03:24:24;;;;;;;16.63;6.70;;;;;;;5.15;100.00;102239.56;5244069;28;20022;-66
2023/05/24 03:26:56;;;;;;;18.90;6.00;;;;;;;5.14;100.00;102237.81;5243320;28;20049;-67
2023/05/24 03:29:27;;;;;;;15.83;6.33;;;;;;;5.14;100.00;102243.84;5243660;28;20040;-65
2023/05/24 03:31:59;;;;;;;17.30;6.40;;;;;;;5.08;100.00;102241.06;5242000;28;20030;-65
2023/05/24 03:34:30;;;;;;;19.87;6.27;;;;;;;5.10;100.00;102239.41;5258309;28;20072;-65
2023/05/24 03:37:01;;;;;;;25.63;8.17;;;;;;;5.13;100.00;102241.22;5242726;28;20443;-66
2023/05/24 03:39:33;;;;;;;23.60;7.93;;;;;;;5.09;100.00;102228.19;5242798;28;20388;-66
2023/05/24 03:42:04;;;;;;;19.63;7.63;;;;;;;5.19;100.00;102236.25;5241804;28;20419;-66
2023/05/24 03:44:36;;;;;;;15.50;7.33;;;;;;;5.25;100.00;102239.03;5243126;28;20172;-67
2023/05/24 03:47:07;;;;;;;15.67;6.67;;;;;;;5.15;100.00;102235.25;5241838;28;20056;-66
2023/05/24 03:49:39;;;;;;;21.27;7.57;;;;;;;5.13;100.00;102238.63;5243280;28;20030;-67
2023/05/24 03:52:10;;;;;;;17.80;6.43;;;;;;;5.20;100.00;102231.13;5242622;28;20037;-67
2023/05/24 03:54:42;;;;;;;18.03;7.93;;;;;;;5.10;100.00;102235.13;5242856;28;20330;-66
2023/05/24 03:57:13;;;;;;;17.97;7.07;;;;;;;5.14;100.00;102233.50;5242677;28;20038;-66
2023/05/24 03:59:45;;;;;;;23.60;7.40;;;;;;;5.14;100.00;102235.22;5241512;28;20039;-67
2023/05/24 04:02:16;;;;;;;18.73;6.60;;;;;;;5.07;100.00;102236.72;5242381;28;20029;-67
2023/05/24 04:04:47;;;;;;;15.63;6.53;;;;;;;5.16;100.00;102236.16;5243270;28;20091;-66
2023/05/24 04:07:19;;;;;;;22.37;7.77;;;;;;;5.14;100.00;102232.66;5242583;28;20025;-66
2023/05/24 04:09:50;;;;;;;21.57;7.83;;;;;;;5.14;100.00;102238.69;5241252;28;20038;-65
2023/05/24 04:12:23;;;;;;;26.23;7.37;;;;;;;5.23;100.00;102236.41;5242826;28;20033;-65
2023/05/24 04:14:54;;;;;;;18.85;7.72;;;;;;;5.26;100.00;102235.63;5242492;28;20079;-66
2023/05/24 04:17:28;;;;;;;18.50;8.37;;;;;;;5.24;100.00;102235.56;5241192;28;20073;-65
2023/05/24 04:20:00;;;;;;;21.52;6.95;;;;;;;5.32;100.00;102237.53;5243129;28;20029;-66
2023/05/24 04:22:31;;;;;;;24.73;8.45;;;;;;;5.35;100.00;102248.84;5242332;28;20033;-66
2023/05/24 04:25:04;;;;;;;20.83;7.07;;;;;;;5.36;100.00;102252.31;5242831;28;20409;-66
2023/05/24 04:27:35;;;;;;;21.75;7.60;;;;;;;5.37;100.00;102248.91;5242618;28;20029;-66
2023/05/24 04:30:08;;;;;;;17.77;8.00;;;;;;;5.37;100.00;102249.75;5257663;28;20384;-65
2023/05/24 04:32:39;;;;;;;23.00;7.47;;;;;;;5.42;100.00;102248.19;5242473;28;20056;-66
2023/05/24 04:35:11;;;;;;;17.77;7.97;;;;;;;5.42;100.00;102243.03;5242360;28;20038;-66
2023/05/24 04:37:43;;;;;;;24.77;7.60;;;;;;;5.48;100.00;102242.34;5241828;28;20068;-66
2023/05/24 04:40:15;;;;;;;22.15;8.18;;;;;;;5.52;100.00;102244.19;5241904;28;20033;-66
2023/05/24 04:42:46;;;;;;;23.63;9.27;;;;;;;5.56;100.00;102250.38;5242558;28;20083;-67
2023/05/24 04:45:18;;;;;;;23.97;10.23;;;;;;;5.60;100.00;102245.34;5240695;28;20030;-66
2023/05/24 04:47:49;;;;;;;27.10;8.20;;;;;;;5.66;100.00;102252.41;5241798;28;20092;-66
2023/05/24 04:50:20;;;;;;;23.83;9.00;;;;;;;5.72;100.00;102259.50;5241784;28;20512;-65
2023/05/24 04:52:52;;;;;;;22.33;7.60;;;;;;;5.76;100.00;102245.78;5241927;28;20484;-65
2023/05/24 04:55:23;;;;;;;24.03;9.57;;;;;;;5.79;100.00;102248.47;5241904;28;20021;-67
2023/05/24 04:57:54;;;;;;;20.37;8.37;;;;;;;5.90;100.00;102251.41;5257521;28;20036;-65
2023/05/24 05:00:26;;;;;;;19.73;8.60;;;;;;;5.97;100.00;102253.34;5242422;28;20600;-66
2023/05/24 05:02:57;;;;;;;35.07;10.50;;;;;;;6.06;100.00;102255.34;5241811;28;20151;-65
2023/05/24 05:05:29;;;;;;;22.57;9.67;;;;;;;6.15;100.00;102243.56;5242094;28;20026;-66
2023/05/24 05:08:01;;;;;;;20.13;8.23;;;;;;;6.18;100.00;102248.81;5242110;28;20033;-66
2023/05/24 05:10:32;;;;;;;25.63;8.50;;;;;;;6.24;100.00;102250.69;5242352;28;20460;-66
2023/05/24 05:13:04;;;;;;;26.13;9.00;;;;;;;6.34;100.00;102247.56;5241553;28;20153;-66
2023/05/24 05:15:35;;;;;;;29.73;9.43;;;;;;;6.41;100.00;102247.69;5241538;28;20033;-66
2023/05/24 05:18:06;;;;;;;20.80;8.67;;;;;;;6.49;100.00;102254.88;5241979;28;20389;-66
2023/05/24 05:20:38;;;;;;;21.57;8.03;;;;;;;6.59;100.00;102260.31;5242194;28;20036;-66
2023/05/24 05:23:09;;;;;;;21.43;9.00;;;;;;;6.66;100.00;102251.84;5240317;28;20073;-66
2023/05/24 05:25:40;;;;;;;22.40;10.43;;;;;;;6.75;100.00;102255.56;5241600;28;20477;-65
2023/05/24 05:28:12;;;;;;;28.47;9.87;;;;;;;6.85;100.00;102263.59;5241400;28;20168;-66
2023/05/24 05:30:43;;;;;;;30.87;9.70;;;;;;;6.93;100.00;102267.25;5241612;28;20057;-65
2023/05/24 05:33:14;;;;;;;28.77;10.03;;;;;;;7.00;100.00;102263.97;5241633;28;20025;-66
2023/05/24 05:35:46;;;;;;;22.17;8.77;;;;;;;7.11;100.00;102261.66;5241693;28;20170;-66
2023/05/24 05:38:17;;;;;;;33.00;8.87;;;;;;;7.18;100.00;102267.88;5241469;28;20503;-66
2023/05/24 05:40:48;;;;;;;23.83;9.90;;;;;;;7.27;100.00;102258.59;5241174;28;20037;-69
2023/05/24 05:43:20;;;;;;;29.53;9.20;;;;;;;7.35;100.00;102257.94;5240323;28;20033;-66
2023/05/24 05:45:51;;;;;;;27.60;8.90;;;;;;;7.44;100.00;102261.63;5241105;28;20025;-66
2023/05/24 05:48:23;;;;;;;19.80;9.33;;;;;;;7.55;100.00;102254.09;5240158;28;20054;-66
2023/05/24 05:50:54;;;;;;;26.73;8.30;;;;;;;7.63;100.00;102273.31;5241537;28;20083;-66
2023/05/24 05:53:26;;;;;;;23.93;9.23;;;;;;;7.71;100.00;102267.41;5241475;28;20083;-67
2023/05/24 05:55:57;;;;;;;19.20;8.10;;;;;;;7.77;100.00;102271.00;5240910;28;20029;-67
2023/05/24 05:58:28;;;;;;;23.27;9.07;;;;;;;7.93;100.00;102272.25;5240960;28;20045;-67
2023/05/24 06:01:00;;;;;;;21.77;8.13;;;;;;;8.00;100.00;102274.16;5241368;28;20030;-66
2023/05/24 06:03:31;;;;;;;27.77;8.80;;;;;;;8.11;100.00;102283.88;5241837;28;20040;-66
2023/05/24 06:06:03;;;;;;;29.10;9.33;;;;;;;8.26;100.00;102285.91;5244800;28;20381;-67
2023/05/24 06:08:35;;;;;;;27.47;9.93;;;;;;;8.33;100.00;102288.69;5244439;28;20082;-67
2023/05/24 06:11:06;;;;;;;31.50;9.13;;;;;;;8.47;100.00;102285.50;5244849;28;20033;-66
2023/05/24 06:13:38;;;;;;;39.47;11.23;;;;;;;8.56;100.00;102285.69;5260146;28;20044;-66
2023/05/24 06:16:09;;;;;;;25.30;9.77;;;;;;;8.66;99.44;102286.75;5245346;28;20469;-66
2023/05/24 06:18:41;;;;;;;23.67;8.27;;;;;;;8.87;99.02;102286.28;5244965;28;20112;-67
2023/05/24 06:21:15;;;;;;;23.83;9.37;;;;;;;8.94;98.52;102288.16;5244731;28;20169;-65
2023/05/24 06:23:47;;;;;;;23.63;7.63;;;;;;;9.10;97.98;102284.09;5244552;28;20041;-66
2023/05/24 06:26:20;;;;;;;23.77;8.80;;;;;;;9.19;97.06;102291.19;5244646;28;20089;-66
2023/05/24 06:28:51;;;;;;;24.60;9.85;;;;;;;9.32;95.99;102293.13;5244469;28;20295;-66
2023/05/24 06:31:22;;;;;;;27.80;9.17;;;;;;;9.36;95.15;102297.53;5245026;28;20121;-67
2023/05/24 06:33:54;;;;;;;26.00;9.40;;;;;;;9.47;95.30;102296.00;5244397;28;20037;-66
2023/05/24 06:36:26;;;;;;;27.37;8.90;;;;;;;9.65;95.77;102299.75;5244820;28;20457;-66
2023/05/24 06:38:57;;;;;;;26.20;11.13;;;;;;;9.75;95.24;102293.81;5244210;28;20098;-67
2023/05/24 06:41:28;;;;;;;24.30;10.33;;;;;;;9.90;94.79;102290.56;5243965;28;20474;-66
2023/05/24 06:44:00;;;;;;;28.43;9.33;;;;;;;10.05;93.45;102297.72;5243959;28;20101;-66
2023/05/24 06:46:31;;;;;;;28.47;9.90;;;;;;;10.31;92.31;102291.97;5244134;28;20025;-66
2023/05/24 06:49:03;;;;;;;23.03;10.77;;;;;;;10.45;89.96;102292.16;5244420;28;20384;-66
2023/05/24 06:51:35;;;;;;;28.00;10.27;;;;;;;10.66;91.04;102296.75;5244160;28;20034;-67
2023/05/24 06:54:06;;;;;;;25.67;9.73;;;;;;;10.85;88.27;102290.88;5244177;28;20395;-66
2023/05/24 06:56:38;;;;;;;23.90;10.07;;;;;;;10.87;86.63;102304.81;5243896;28;20030;-66
2023/05/24 06:59:09;;;;;;;26.13;9.87;;;;;;;10.97;86.78;102304.91;5243930;28;20030;-66
2023/05/24 07:01:41;;;;;;;25.80;10.47;;;;;;;11.04;85.78;102304.09;5259332;28;20026;-67
2023/05/24 07:04:13;;;;;;;29.95;12.00;;;;;;;10.98;85.28;102302.31;5243864;28;20030;-67
2023/05/24 07:06:44;;;;;;;28.47;9.97;;;;;;;11.02;83.86;102306.69;5244523;28;20117;-66
2023/05/24 07:09:16;;;;;;;16.03;8.40;;;;;;;11.15;83.34;102309.44;5243764;28;20031;-66
2023/05/24 07:11:48;;;;;;;26.52;9.40;;;;;;;11.15;81.38;102309.44;5242396;28;20464;-66
2023/05/24 07:14:21;;;;;;;23.43;9.80;;;;;;;11.38;82.44;102302.69;5243201;28;20099;-66
2023/05/24 07:16:56;;;;;;;29.10;9.73;;;;;;;11.35;79.49;102309.59;5243124;28;20029;-66
2023/05/24 07:19:28;;;;;;;18.75;8.88;;;;;;;11.48;79.99;102308.84;5243436;28;20038;-65
2023/05/24 07:21:59;;;;;;;22.17;9.65;;;;;;;11.46;78.87;102303.63;5243513;28;20033;-67
2023/05/24 07:24:30;;;;;;;24.13;9.20;;;;;;;11.54;78.21;102314.09;5243176;28;20026;-66
2023/05/24 07:27:03;;;;;;;21.17;9.73;;;;;;;11.91;78.14;102309.13;5243226;28;20052;-65
2023/05/24 07:29:35;;;;;;;21.75;8.60;;;;;;;12.31;75.11;102318.97;5243741;28;20373;-63
2023/05/24 07:32:06;;;;;;;19.63;8.07;;;;;;;12.16;74.41;102309.31;5242972;28;20029;-65
2023/05/24 07:34:38;;;;;;;21.43;9.60;;;;;;;12.47;75.68;102315.53;5243274;28;20025;-66
2023/05/24 07:37:09;;;;;;;26.03;10.17;;;;;;;12.43;72.99;102319.03;5242491;28;20358;-66
2023/05/24 07:39:41;;;;;;;20.53;9.23;;;;;;;12.68;74.93;102316.50;5242788;28;20040;-66
2023/05/24 07:42:12;;;;;;;25.10;7.97;;;;;;;12.71;73.51;102322.59;5241740;28;20076;-66
2023/05/24 07:44:43;;;;;;;26.70;9.10;;;;;;;12.45;73.58;102319.03;5242527;28;20033;-66
2023/05/24 07:47:15;;;;;;;24.33;8.83;;;;;;;12.52;73.36;102318.19;5242765;28;20212;-65
2023/05/24 07:49:47;;;;;;;28.07;8.30;;;;;;;12.63;71.93;102315.59;5242852;28;20039;-67
2023/05/24 07:52:19;;;;;;;21.83;7.80;;;;;;;12.77;69.77;102321.75;5242849;28;20044;-66
2023/05/24 07:54:51;;;;;;;21.95;7.70;;;;;;;12.89;69.02;102324.38;5242759;28;20094;-66
2023/05/24 07:57:22;;;;;;;15.20;6.45;;;;;;;13.02;69.28;102316.56;5242587;28;20026;-66
2023/05/24 07:59:53;;;;;;;28.17;9.33;;;;;;;13.30;68.88;102314.88;5242268;28;20033;-66
2023/05/24 08:02:26;;;;;;;24.03;7.50;;;;;;;13.49;65.42;102318.34;5225109;28;20033;-65
2023/05/24 08:04:57;;;;;;;18.40;5.72;;;;;;;13.60;62.27;102313.97;5242905;28;20473;-66
2023/05/24 08:07:29;;;;;;;16.50;5.50;;;;;;;13.79;61.52;102322.69;5241386;28;20033;-67
2023/05/24 08:10:00;;;;;;;20.30;5.33;;;;;;;13.67;61.37;102320.13;5242915;28;20127;-66
2023/05/24 08:12:32;;;;;;;19.47;5.60;;;;;;;13.59;62.23;102312.25;5242435;28;20041;-67
2023/05/24 08:15:04;;;;;;;15.80;5.33;;;;;;;13.52;63.71;102314.88;5243020;28;20033;-66
2023/05/24 08:17:37;;;;;;;16.15;6.57;;;;;;;13.65;64.84;102313.97;5242416;28;20029;-66
2023/05/24 08:20:12;;;;;;;25.63;7.13;;;;;;;14.00;62.79;102307.81;5242309;28;20072;-66
2023/05/24 08:22:43;;;;;;;18.20;6.03;;;;;;;14.15;62.81;102310.41;5257385;28;20026;-66
2023/05/24 08:25:15;;;;;;;15.60;5.70;;;;;;;13.77;61.49;102310.50;5242444;28;20472;-66
2023/05/24 08:27:46;;;;;;;19.43;5.73;;;;;;;13.58;62.27;102305.25;5242054;28;20092;-66
2023/05/24 08:30:18;;;;;;;15.40;5.90;;;;;;;13.61;60.70;102313.13;5242192;28;20034;-65
2023/05/24 08:32:51;;;;;;;17.85;5.80;;;;;;;13.87;60.31;102304.34;5242140;28;20030;-66
2023/05/24 08:35:22;;;;;;;14.90;5.25;;;;;;;14.27;60.88;102317.34;5242163;28;20060;-65
2023/05/24 08:37:54;;;;;;;13.80;5.63;;;;;;;14.23;59.39;102307.72;5242097;28;20045;-66
2023/05/24 08:40:25;;;;;;;18.53;5.13;;;;;;;14.30;58.50;102295.50;5241767;28;20029;-66
2023/05/24 08:43:00;;;;;;;14.13;6.80;;;;;;;14.64;57.60;102305.84;5242302;28;20604;-66
2023/05/24 08:45:35;;;;;;;18.52;5.30;;;;;;;14.66;56.71;102290.97;5240722;28;20033;-66
2023/05/24 08:48:08;;;;;;;15.00;4.80;;;;;;;14.93;59.77;102290.78;5241979;28;20118;-66
2023/05/24 08:50:41;;;;;;;14.07;5.40;;;;;;;15.26;56.42;102295.78;5241645;28;20507;-66
2023/05/24 08:53:13;;;;;;;18.45;5.70;;;;;;;15.53;55.40;102288.56;5242240;28;20061;-67
2023/05/24 08:55:45;;;;;;;14.65;5.20;;;;;;;15.60;55.25;102288.50;5241730;28;20033;-66
2023/05/24 08:58:17;;;;;;;13.53;5.30;;;;;;;15.78;53.63;102294.50;5257283;28;20121;-67
2023/05/24 09:00:48;;;;;;;13.33;4.27;;;;;;;16.38;55.26;102285.88;5225080;28;20041;-66
2023/05/24 09:03:20;;;;;;;15.10;5.33;;;;;;;15.32;52.09;102287.84;5242143;28;20033;-67
2023/05/24 09:05:52;;;;;;;18.55;6.70;;;;;;;15.13;54.20;102279.25;5240362;28;20465;-66
2023/05/24 09:08:23;;;;;;;14.27;5.53;;;;;;;15.29;53.93;102282.63;5241722;28;20036;-66
2023/05/24 09:10:55;;;;;;;14.30;5.80;;;;;;;15.09;54.28;102283.66;5241048;28;20025;-67
2023/05/24 09:13:27;;;;;;;19.00;5.17;;;;;;;14.95;56.09;102283.75;5241981;28;20065;-65
2023/05/24 09:15:58;;;;;;;12.63;4.80;;;;;;;14.62;54.81;102282.25;5242002;28;20278;-67
2023/05/24 09:18:30;;;;;;;16.97;5.80;;;;;;;14.88;57.30;102282.06;5240847;28;20284;-66
2023/05/24 09:21:01;;;;;;;13.63;4.90;;;;;;;14.87;55.89;102280.31;5241382;28;20338;-66
2023/05/24 09:23:33;;;;;;;18.17;5.60;;;;;;;14.93;55.41;102287.28;5242250;28;20046;-65
2023/05/24 09:26:08;;;;;;;14.15;5.60;;;;;;;14.75;54.66;102283.03;5241183;28;20040;-65
2023/05/24 09:28:40;;;;;;;13.05;5.05;;;;;;;15.01;52.93;102280.22;5241481;28;20418;-66
2023/05/24 09:31:12;;;;;;;13.85;5.22;;;;;;;15.30;52.72;102279.13;5241488;28;20037;-67
2023/05/24 09:33:47;;;;;;;11.37;4.90;;;;;;;15.27;53.05;102280.00;5241273;28;20086;-66
2023/05/24 09:36:19;;;;;;;14.25;5.20;;;;;;;15.11;52.88;102283.66;5241398;28;20280;-66
2023/05/24 09:39:08;;;;;;;16.57;5.20;;;;;;;15.12;54.63;102277.53;5242899;28;20040;-64
2023/05/24 09:41:42;;;;;;;16.98;6.47;;;;;;;15.14;54.01;102278.38;5245458;28;20465;-65
2023/05/24 09:44:14;;;;;;;12.65;4.32;;;;;;;15.18;52.30;102287.09;5245444;28;20184;-66
2023/05/24 09:46:45;;;;;;;14.07;4.23;;;;;;;15.46;50.84;102279.88;5245462;28;20148;-67
2023/05/24 09:49:19;;;;;;;12.97;4.23;;;;;;;15.52;49.82;102277.19;5245894;28;20113;-66
2023/05/24 09:51:51;;;;;;;16.33;5.65;;;;;;;15.46;48.16;102282.50;5245240;28;20040;-65
2023/05/24 09:54:25;;;;;;;14.70;5.28;;;;;;;15.80;52.90;102274.31;5245229;28;20033;-65
2023/05/24 09:57:00;;;;;;;10.52;4.13;;;;;;;15.35;49.27;102276.47;5245906;28;20381;-65
2023/05/24 09:59:35;;;;;;;14.02;4.07;;;;;;;15.54;50.71;102278.03;5245137;28;20040;-65
2023/05/24 10:02:09;;;;;;;12.35;4.75;;;;;;;15.34;49.11;102269.47;5245360;28;20430;-66
2023/05/24 10:04:40;;;;;;;13.40;5.10;;;;;;;16.06;49.10;102279.25;5245566;28;20038;-66
2023/05/24 10:07:12;;;;;;;15.03;4.67;;;;;;;16.68;47.02;102270.53;5244687;28;20040;-65
2023/05/24 10:09:45;;;;;;;13.57;4.68;;;;;;;17.34;44.53;102269.53;5245079;28;20075;-66
2023/05/24 10:12:17;;;;;;;;;;;;;;;18.47;45.12;102270.00;5246123;28;20041;-66
2023/05/24 10:14:50;;;;;;;11.82;4.20;;;;;;;17.86;43.07;102268.56;5244897;28;20061;-66
2023/05/24 10:17:23;;;;;;;12.77;4.13;;;;;;;19.16;40.07;102256.94;5244779;28;20043;-66
2023/05/24 10:19:54;;;;;;;14.13;4.55;;;;;;;18.96;40.28;102260.94;5244825;28;20083;-66
2023/05/24 10:22:26;;;;;;;14.87;4.97;;;;;;;17.86;42.97;102265.06;5244431;28;20033;-65
2023/05/24 10:24:58;;;;;;;12.85;5.85;;;;;;;18.10;43.23;102260.25;5244663;28;20057;-66
2023/05/24 10:27:32;;;;;;;12.00;5.00;;;;;;;17.40;43.50;102261.50;5244817;28;20373;-66
2023/05/24 10:30:13;;;;;;;13.43;4.95;;;;;;;17.44;45.22;102254.44;5244550;28;20083;-66
2023/05/24 10:32:47;;;;;;;13.10;4.43;;;;;;;17.62;44.43;102253.22;5244662;28;20047;-66
2023/05/24 10:35:19;;;;;;;14.32;4.43;;;;;;;17.29;44.49;102248.53;5244582;28;20526;-67
2023/05/24 10:37:51;;;;;;;12.65;4.43;;;;;;;16.98;46.43;102261.34;5243822;28;20025;-66
2023/05/24 10:40:25;;;;;;;12.10;4.45;;;;;;;17.01;46.68;102253.38;5245080;28;20061;-66
2023/05/24 10:42:57;;;;;;;13.60;4.43;;;;;;;16.99;44.78;102254.34;5243247;28;20041;-66
2023/05/24 10:45:35;;;;;;;10.13;4.40;;;;;;;17.36;44.61;102253.72;5244726;28;20037;-66
2023/05/24 10:48:12;;;;;;;11.15;4.43;;;;;;;17.66;43.66;102255.78;5244008;28;20384;-66
2023/05/24 10:50:44;;;;;;;14.32;4.30;;;;;;;17.45;43.89;102251.78;5244450;28;20511;-66
2023/05/24 10:53:18;;;;;;;12.50;4.03;;;;;;;17.77;44.45;102247.63;5244792;28;20030;-66
2023/05/24 10:56:00;;;;;;;12.25;4.25;;;;;;;17.98;45.92;102246.41;5244091;28;20488;-67
2023/05/24 10:58:57;;;;;;;12.80;4.00;;;;;;;17.77;44.90;102247.63;5243727;28;20025;-66
2023/05/24 11:01:31;;;;;;;11.25;4.85;;;;;;;17.16;44.81;102249.63;5244207;28;20064;-66
2023/05/24 11:04:10;;;;;;;13.23;3.67;;;;;;;18.31;46.28;102243.94;5244174;28;20109;-66
2023/05/24 11:06:56;;;;;;;10.32;3.58;;;;;;;18.76;42.64;102245.56;5244198;28;20497;-66
2023/05/24 11:09:28;;;;;;;10.55;4.20;;;;;;;18.87;40.90;102238.28;5243444;28;20029;-66
2023/05/24 11:12:02;;;;;;;12.25;4.65;;;;;;;18.46;41.81;102241.84;5242916;28;20484;-66
2023/05/24 11:14:38;;;;;;;13.05;4.43;;;;;;;17.65;44.49;102242.63;5244077;28;20385;-65
2023/05/24 11:17:10;;;;;;;8.98;4.05;;;;;;;17.94;44.08;102243.84;5243748;28;20033;-65
2023/05/24 11:19:52;;;;;;;10.97;4.23;;;;;;;17.67;43.51;102248.72;5243659;28;20030;-65
2023/05/24 11:22:24;;;;;;;8.93;3.70;;;;;;;17.58;43.52;102248.88;5243614;28;20500;-64
2023/05/24 11:24:56;;;;;;;8.70;4.03;;;;;;;17.47;44.09;102252.59;5243662;28;20033;-67
2023/05/24 11:27:29;;;;;;;11.63;4.07;;;;;;;17.38;44.73;102250.13;5243230;28;20079;-66
2023/05/24 11:30:01;;;;;;;12.10;4.13;;;;;;;17.18;44.84;102246.97;5242083;28;20034;-65
2023/05/24 11:32:32;;;;;;;11.63;4.05;;;;;;;17.11;45.98;102252.38;5244030;28;20040;-65
2023/05/24 11:35:07;;;;;;;11.30;3.93;;;;;;;17.35;44.12;102250.19;5243376;28;20040;-66
2023/05/24 11:37:39;;;;;;;15.27;4.90;;;;;;;17.69;44.27;102246.91;5243905;28;20501;-66
2023/05/24 11:40:11;;;;;;;18.07;5.37;;;;;;;18.57;42.96;102245.13;5243250;28;20025;-65
2023/05/24 11:42:43;;;;;;;10.13;3.63;;;;;;;19.10;39.86;102245.63;5241854;28;20030;-66
2023/05/24 11:45:17;;;;;;;12.20;4.97;;;;;;;18.53;40.15;102239.03;5243404;28;20457;-66